• Join FlightAware (Why Join?)
  • Login
  • US Flag 
05:17AM EDT


 

Airport Tracker/Info


-or-


 

Live Flight TrackerFlight Track Log ✈ DAL3982 ✈ 27-Apr-2013 ✈ KATL - CYUL

Flight Track Log - Related Links

Times and Time Zones

All times are in EDT time to prevent confusion due to time zone crossing. See the DAL3982 flight status page for this flight to view local times or setup timezone preferences in your user account.

Time Position Orientation Groundspeed Altitude Reporting Facility
EDT Latitude Longitude Course Direction KTS MPH feet Rate Location/Type
09:07PM 33.6500 -84.3833 North 167 192 2,300  Level Atlanta TRACON
09:08PM 33.6667 -84.3167 73° East 237 273 3,700 1,980 Climbing Atlanta TRACON
09:09PM 33.8325 -84.1667 North  Level FlightAware Approximate
09:09PM 33.7333 -84.3000 12° North 299 344 6,300  Level Atlanta TRACON
09:10PM 33.9259 -84.2592 320° Northwest  Level FlightAware Approximate
09:10PM 33.8167 -84.2833 North 296 341 9,500  Level Atlanta TRACON
09:11PM 34.0447 -84.2667 North  Level FlightAware Approximate
09:12PM 34.1658 -84.2667 North  Level FlightAware Approximate
09:12PM 34.0319 -84.2869 359° North 349 402 13,300  Level Atlanta Center
09:13PM 34.1406 -84.2572 13° North 379 436 16,400 2,100 Climbing Atlanta Center
09:14PM 34.2469 -84.2372 North 393 452 17,600 1,440 Climbing Atlanta Center
09:15PM 34.3619 -84.2150 North 406 467 19,300 1,500 Climbing Atlanta Center
09:16PM 34.4872 -84.1900 North 413 475 20,700 1,320 Climbing Atlanta Center
09:17PM 34.6122 -84.1650 North 433 498 22,000 1,080 Climbing Atlanta Center
09:18PM 34.7208 -84.1422 10° North 433 498 22,900 1,200 Climbing Atlanta Center
09:19PM 34.8503 -84.1172 North 451 519 24,400 1,380 Climbing Atlanta Center
09:20PM 34.9756 -84.0894 10° North 456 525 25,700 1,080 Climbing Atlanta Center
09:21PM 35.1069 -84.0642 North 461 531 26,600 900 Climbing Atlanta Center
09:22PM 35.2406 -84.0361 10° North 473 544 27,500 1,140 Climbing Atlanta Center
09:23PM 35.3742 -84.0083 10° North 473 544 28,900 1,380 Climbing Atlanta Center
09:24PM 35.5033 -83.9800 10° North 473 544 30,300 1,020 Climbing Atlanta Center
09:25PM 35.6347 -83.9519 10° North 478 550 31,000 300 Climbing Atlanta Center
09:26PM 35.7703 -83.9236 10° North 483 556 31,000  Level Atlanta Center
09:27PM 35.9081 -83.8900 11° North 488 562 31,000 600 Level Atlanta Center
09:28PM 36.0372 -83.8128 26° Northeast 493 567 32,200 900 Climbing Atlanta Center
09:30PM 36.2900 -83.6511 27° Northeast 509 586 33,800 720 Climbing Indianapolis Center
09:31PM 36.4172 -83.5706 27° Northeast 512 589 34,400 540 Climbing Indianapolis Center
09:32PM 36.5569 -83.4833 27° Northeast 519 597 35,000 240 Climbing Indianapolis Center
09:33PM 36.6839 -83.4011 27° Northeast 514 592 35,000  Level Indianapolis Center
09:34PM 36.8122 -83.3181 27° Northeast 514 592 35,000  Level Indianapolis Center
09:35PM 36.9411 -83.2347 27° Northeast 514 592 35,000  Level Indianapolis Center
09:36PM 37.0706 -83.1511 27° Northeast 514 592 35,000  Level Indianapolis Center
09:37PM 37.2000 -83.0675 27° Northeast 516 594 35,000  Level Indianapolis Center
09:38PM 37.3275 -82.9831 28° Northeast 514 592 35,000  Level Indianapolis Center
09:39PM 37.4567 -82.8994 27° Northeast 516 594 35,000  Level Indianapolis Center
09:40PM 37.5767 -82.7947 35° Northeast 529 609 35,000  Level Indianapolis Center
09:41PM 37.6939 -82.6850 37° Northeast 523 602 35,000  Level Indianapolis Center
09:42PM 37.8128 -82.5742 36° Northeast 526 605 35,000  Level Indianapolis Center
09:43PM 37.9294 -82.4650 36° Northeast 521 600 35,000  Level Indianapolis Center
09:44PM 38.0469 -82.3514 37° Northeast 529 609 35,000  Level Indianapolis Center
09:45PM 38.1669 -82.2378 37° Northeast 526 605 35,000  Level Indianapolis Center
09:46PM 38.2844 -82.1261 37° Northeast 525 604 35,000  Level Indianapolis Center
09:47PM 38.4017 -82.0131 37° Northeast 526 605 35,000  Level Indianapolis Center
09:48PM 38.5194 -81.9006 37° Northeast 526 605 35,000  Level Indianapolis Center
09:49PM 38.6372 -81.7875 37° Northeast 524 603 35,000  Level Indianapolis Center
09:50PM 38.7567 -81.6722 37° Northeast 523 602 35,000  Level Indianapolis Center
09:51PM 38.8753 -81.5553 37° Northeast 519 597 35,000  Level Indianapolis Center
09:52PM 38.9900 -81.4425 37° Northeast 513 590 35,000  Level Indianapolis Center
09:53PM 39.1028 -81.3308 38° Northeast 509 586 35,000  Level Indianapolis Center
09:54PM 39.2158 -81.2197 37° Northeast 510 587 35,000 -60 Level Indianapolis Center
09:55PM 39.3281 -81.1092 37° Northeast 507 583 34,900 -480 Descending Indianapolis Center
09:56PM 39.4378 -80.9997 38° Northeast 499 574 34,100 -840 Descending Indianapolis Center
09:57PM 39.5461 -80.8908 38° Northeast 493 567 33,300 -660 Descending Indianapolis Center
09:58PM 39.6397 -80.8014 36° Northeast 497 572 33,000 -180 Descending Cleveland Center
09:59PM 39.7481 -80.6911 38° Northeast 492 566 33,000  Level Cleveland Center
10:00PM 39.8567 -80.5803 38° Northeast 492 566 33,000  Level Cleveland Center
10:01PM 39.9669 -80.4692 38° Northeast 492 566 33,000  Level Cleveland Center
10:02PM 40.0753 -80.3606 37° Northeast 492 566 33,000  Level Cleveland Center
10:03PM 40.1814 -80.2489 39° Northeast 487 560 33,000  Level Cleveland Center
10:04PM 40.2914 -80.1367 38° Northeast 496 571 33,000  Level Cleveland Center
10:05PM 40.3869 -80.0378 38° Northeast 502 578 33,000  Level Cleveland Center
10:06PM 40.5008 -79.9197 38° Northeast 510 587 33,000  Level Cleveland Center
10:07PM 40.6086 -79.8064 39° Northeast 510 587 33,000  Level Cleveland Center
10:08PM 40.7183 -79.6928 38° Northeast 510 587 33,000  Level Cleveland Center
10:09PM 40.8278 -79.5789 38° Northeast 510 587 33,000  Level Cleveland Center
10:10PM 40.9372 -79.4617 39° Northeast 510 587 33,000  Level Cleveland Center
10:11PM 41.0467 -79.3469 38° Northeast 510 587 33,000  Level Cleveland Center
10:12PM 41.1558 -79.2319 38° Northeast 510 587 33,000  Level Cleveland Center
10:13PM 41.2647 -79.1164 39° Northeast 510 587 33,000  Level Cleveland Center
10:14PM 41.3717 -79.0033 38° Northeast 510 587 33,000  Level Cleveland Center
10:15PM 41.4783 -78.8869 39° Northeast 504 580 33,000  Level Cleveland Center
10:16PM 41.5850 -78.7703 39° Northeast 499 574 33,000  Level Cleveland Center
10:17PM 41.6875 -78.6561 40° Northeast 493 567 33,000  Level Cleveland Center
10:18PM 41.7917 -78.5417 39° Northeast 493 567 33,000  Level Cleveland Center
10:19PM 41.8961 -78.4297 39° Northeast 493 567 33,000  Level Cleveland Center
10:20PM 42.0003 -78.3172 39° Northeast 488 562 33,000  Level Cleveland Center
10:21PM 42.1164 -78.1897 39° Northeast 488 562 33,000  Level Cleveland Center
10:22PM 42.2203 -78.0739 40° Northeast 488 562 33,000  Level Cleveland Center
10:23PM 42.3239 -77.9572 40° Northeast 482 555 33,000  Level Cleveland Center
10:24PM 42.4256 -77.8433 40° Northeast 482 555 33,000  Level Cleveland Center
10:25PM 42.5292 -77.7289 39° Northeast 482 555 33,000  Level Cleveland Center
10:27PM 42.7231 -77.5058 40° Northeast 483 556 33,000  Level Boston Center
10:28PM 42.8264 -77.3897 39° Northeast 477 549 33,000  Level Boston Center
10:29PM 42.9272 -77.2758 40° Northeast 477 549 33,000  Level Boston Center
10:30PM 43.0258 -77.1583 41° Northeast 477 549 33,000  Level Boston Center
10:31PM 43.1264 -77.0439 40° Northeast 477 549 33,000  Level Boston Center
10:32PM 43.2269 -76.9289 40° Northeast 477 549 33,000  Level Boston Center
10:33PM 43.3256 -76.8103 41° Northeast 477 549 33,000  Level Boston Center
10:34PM 43.4000 -76.7000 47° Northeast 460 529 33,000  Level Montreal Center
10:35PM 43.5167 -76.5833 36° Northeast 470 541 33,000 -120 Level Montreal Center
10:36PM 43.6000 -76.4833 41° Northeast 460 529 32,800 -600 Descending Montreal Center
10:37PM 43.7000 -76.3833 36° Northeast 450 518 31,900 -1,080 Descending Montreal Center
10:38PM 43.8167 -76.2667 36° Northeast 460 529 30,700 -1,200 Descending Montreal Center
10:39PM 43.9167 -76.1500 40° Northeast 460 529 29,500 -1,200 Descending Montreal Center
10:39PM 43.9539 -76.1347 16° North 451 519 29,200 -1,200 Descending Boston Center
10:40PM 44.0433 -76.0133 44° Northeast 451 519 28,000 -600 Descending Boston Center
10:41PM 44.1325 -75.8911 45° Northeast 446 513 28,000  Level Boston Center
10:42PM 44.2233 -75.7747 43° Northeast 446 513 28,000  Level Boston Center
10:43PM 44.3122 -75.6522 45° Northeast 446 513 28,000  Level Boston Center
10:44PM 44.4011 -75.5289 45° Northeast 446 513 28,000  Level Boston Center
10:45PM 44.4897 -75.4086 44° Northeast 446 513 28,000 -300 Level Boston Center
10:46PM 44.5783 -75.2847 45° Northeast 446 513 27,500 -1,080 Descending Boston Center
10:47PM 44.6333 -75.2000 48° Northeast 440 506 26,200 -1,680 Descending Montreal Center
10:48PM 44.7167 -75.0667 49° Northeast 440 506 24,600 -1,800 Descending Montreal Center
10:49PM 44.8000 -74.9500 45° Northeast 440 506 22,700 -1,920 Descending Montreal Center
10:50PM 44.8833 -74.8333 45° Northeast 430 495 20,800 -2,040 Descending Montreal Center
10:51PM 44.9833 -74.7167 40° Northeast 420 483 18,700 -1,860 Descending Montreal Center
10:52PM 45.0500 -74.6167 47° Northeast 410 472 17,100 -1,800 Descending Montreal Center
10:53PM 45.1333 -74.5000 45° Northeast 400 460 15,100 -2,220 Descending Montreal Center
10:54PM 45.2000 -74.3833 51° Northeast 350 403 12,700 -2,340 Descending Montreal Center
10:55PM 45.2667 -74.2833 47° Northeast 350 403 10,500 -2,100 Descending Montreal Center
10:56PM 45.3167 -74.1833 55° Northeast 300 345 8,600 -1,260 Descending Montreal Center
10:57PM 45.3833 -74.1000 41° Northeast 280 322 8,000 -660 Descending Montreal Center
10:58PM 45.4167 -74.0333 55° Northeast 260 299 7,300 -960 Descending Montreal Center
10:59PM 45.4500 -73.9667 55° Northeast 230 265 6,100 -1,800 Descending Montreal Center
11:00PM 45.5000 -73.8833 49° Northeast 210 242 3,700 -1,560 Descending Montreal Center
11:01PM 45.5333 -73.8333 46° Northeast 220 253 3,000 -360 Descending Montreal Center
11:02PM 45.5667 -73.7667 54° Northeast 220 253 3,000  Level Montreal Center
11:03PM 45.6167 -73.7000 43° Northeast 210 242 3,100 -120 Climbing Montreal Center
11:04PM 45.6167 -73.6167 90° East 170 196 2,800 -60 Descending Montreal Center
11:05PM 45.5833 -73.6000 161° South 160 184 3,000 -240 Climbing Montreal Center
11:06PM 45.5500 -73.6167 199° South 140 161 2,400 -600 Descending Montreal Center